Time;durP1;ratioP1;P1;durP2;ratioP2;P2;SDS_P1;SDS_P2;PMS_P1;PMS_P2;Temp;Humidity;BMP_temperature;BMP_pressure;BME280_temperature;BME280_humidity;BME280_pressure;Samples;Min_cycle;Max_cycle;Signal;HPM_P1;HPM_P2
2023/01/02 00:01:03;;;;;;;29.17;16.93;;;10.90;99.90;;;;;;5050733;28;20094;-62
2023/01/02 00:03:28;;;;;;;28.30;16.73;;;10.90;99.90;;;;;;5051457;28;20045;-60
2023/01/02 00:05:54;;;;;;;25.95;16.35;;;10.90;99.90;;;;;;5051820;28;20047;-60
2023/01/02 00:08:20;;;;;;;22.40;14.87;;;10.90;99.90;;;;;;5051610;28;20037;-60
2023/01/02 00:10:45;;;;;;;29.33;16.07;;;10.90;99.90;;;;;;5052023;28;20513;-60
2023/01/02 00:13:11;;;;;;;31.30;15.00;;;10.90;99.90;;;;;;5051133;28;20294;-58
2023/01/02 00:15:37;;;;;;;27.50;14.98;;;10.90;99.90;;;;;;5051306;28;20044;-60
2023/01/02 00:18:02;;;;;;;22.52;14.30;;;10.90;99.90;;;;;;5051436;28;20040;-60
2023/01/02 00:20:28;;;;;;;27.17;14.97;;;10.90;99.90;;;;;;5051699;28;20041;-61
2023/01/02 00:22:54;;;;;;;24.97;15.43;;;10.90;99.90;;;;;;5049593;28;20482;-61
2023/01/02 00:25:20;;;;;;;25.90;14.73;;;11.00;99.90;;;;;;5051169;28;20425;-60
2023/01/02 00:27:45;;;;;;;22.67;14.85;;;11.00;99.90;;;;;;5050989;28;20068;-60
2023/01/02 00:30:11;;;;;;;25.67;14.57;;;11.00;99.90;;;;;;5051266;28;20047;-60
2023/01/02 00:32:37;;;;;;;28.08;15.65;;;11.10;99.90;;;;;;5051045;28;20349;-61
2023/01/02 00:35:03;;;;;;;25.90;16.73;;;11.10;99.90;;;;;;5049666;28;20040;-60
2023/01/02 00:37:29;;;;;;;24.63;16.15;;;11.10;99.90;;;;;;5050422;28;20370;-61
2023/01/02 00:39:54;;;;;;;28.33;14.33;;;11.10;99.90;;;;;;5051483;28;20128;-61
2023/01/02 00:42:20;;;;;;;21.97;13.53;;;11.10;99.90;;;;;;5051034;28;20048;-59
2023/01/02 00:44:45;;;;;;;22.77;14.43;;;11.20;99.90;;;;;;5049910;28;20094;-62
2023/01/02 00:47:11;;;;;;;19.07;12.67;;;11.20;99.90;;;;;;5050339;28;20047;-61
2023/01/02 00:49:36;;;;;;;19.03;12.70;;;11.30;99.90;;;;;;5051369;28;20116;-60
2023/01/02 00:52:02;;;;;;;19.20;12.47;;;11.30;99.90;;;;;;5051274;28;20029;-61
2023/01/02 00:54:27;;;;;;;17.30;10.73;;;11.30;99.90;;;;;;5049857;28;20525;-60
2023/01/02 00:56:53;;;;;;;17.27;10.50;;;11.40;99.90;;;;;;5050252;28;20037;-60
2023/01/02 00:59:18;;;;;;;17.83;10.53;;;11.50;99.90;;;;;;5050587;28;20041;-61
2023/01/02 01:01:44;;;;;;;17.90;10.70;;;11.50;99.90;;;;;;5051210;28;20131;-61
2023/01/02 01:04:10;;;;;;;17.07;9.53;;;11.60;99.90;;;;;;5050058;28;20091;-60
2023/01/02 01:06:35;;;;;;;23.02;10.10;;;11.60;99.90;;;;;;5050790;28;20058;-60
2023/01/02 01:09:01;;;;;;;18.60;11.17;;;11.60;99.90;;;;;;5050311;28;20076;-60
2023/01/02 01:11:26;;;;;;;17.38;10.70;;;11.60;99.90;;;;;;5050775;28;20279;-60
2023/01/02 01:13:52;;;;;;;23.60;12.13;;;11.60;99.90;;;;;;5048676;28;20033;-60
2023/01/02 01:16:19;;;;;;;20.90;10.43;;;11.60;99.90;;;;;;5050579;28;20080;-61
2023/01/02 01:18:45;;;;;;;18.27;9.60;;;11.60;99.90;;;;;;5050296;28;20078;-60
2023/01/02 01:21:15;;;;;;;;;;;11.60;99.90;;;;;;5051230;28;20052;-60
2023/01/02 01:23:40;;;;;;;16.55;10.00;;;11.60;99.90;;;;;;5049453;28;20739;-60
2023/01/02 01:26:08;;;;;;;17.77;9.63;;;11.60;99.90;;;;;;5050556;28;20065;-59
2023/01/02 01:28:34;;;;;;;16.00;9.65;;;11.60;99.90;;;;;;5049558;28;20029;-61
2023/01/02 01:31:08;;;;;;;16.60;8.70;;;11.60;99.90;;;;;;5050429;28;20037;-61
2023/01/02 01:33:34;;;;;;;14.85;9.43;;;11.60;99.90;;;;;;5045684;28;20029;-61
2023/01/02 01:36:01;;;;;;;21.20;9.48;;;11.60;99.90;;;;;;5050141;28;20047;-60
2023/01/02 01:38:27;;;;;;;19.15;9.52;;;11.60;99.90;;;;;;5049935;28;20036;-60
2023/01/02 01:40:52;;;;;;;14.10;9.52;;;11.60;99.90;;;;;;5050680;28;20501;-60
2023/01/02 01:43:36;;;;;;;19.23;10.10;;;11.60;99.90;;;;;;5049111;28;20194;-61
2023/01/02 01:46:03;;;;;;;16.75;9.32;;;11.60;99.90;;;;;;5050234;28;20051;-60
2023/01/02 01:48:29;;;;;;;;;;;11.60;99.90;;;;;;5050249;28;20103;-61
2023/01/02 01:50:54;;;;;;;16.85;8.30;;;11.60;99.90;;;;;;5050424;28;20086;-61
2023/01/02 01:53:21;;;;;;;16.67;8.93;;;11.60;99.90;;;;;;5048995;28;20662;-60
2023/01/02 01:55:54;;;;;;;17.08;8.50;;;11.60;99.90;;;;;;5049578;28;20048;-61
2023/01/02 01:58:25;;;;;;;16.92;9.05;;;11.60;99.90;;;;;;5049316;28;20099;-60
2023/01/02 02:00:50;;;;;;;14.20;7.85;;;11.70;99.90;;;;;;5050178;28;20048;-58
2023/01/02 02:03:21;;;;;;;16.88;8.18;;;11.70;99.90;;;;;;5049353;28;20504;-60
2023/01/02 02:05:47;;;;;;;15.25;7.80;;;11.70;99.90;;;;;;5050113;28;20037;-60
2023/01/02 02:08:27;;;;;;;19.70;8.55;;;11.70;99.90;;;;;;5048547;28;20033;-60
2023/01/02 02:10:54;;;;;;;10.90;6.65;;;11.80;99.90;;;;;;5050078;28;20040;-60
2023/01/02 02:13:20;;;;;;;21.17;8.68;;;11.80;99.90;;;;;;5048662;28;20501;-61
2023/01/02 02:16:05;;;;;;;16.23;7.60;;;11.80;99.90;;;;;;5049698;28;20086;-60
2023/01/02 02:19:02;;;;;;;18.23;7.38;;;11.80;99.90;;;;;;5048641;28;20041;-60
2023/01/02 02:21:41;;;;;;;14.70;7.38;;;11.80;99.90;;;;;;5049848;28;20080;-60
2023/01/02 02:24:31;;;;;;;15.45;6.88;;;11.80;99.90;;;;;;5047937;28;20045;-61
2023/01/02 02:27:20;;;;;;;19.98;7.63;;;11.80;99.90;;;;;;5048934;28;20128;-60
2023/01/02 02:30:03;;;;;;;15.63;7.43;;;11.80;99.90;;;;;;5043546;28;20055;-60
2023/01/02 02:32:31;;;;;;;15.23;7.07;;;11.80;99.90;;;;;;5049370;28;20044;-61
2023/01/02 02:35:17;;;;;;;16.05;7.65;;;11.80;99.90;;;;;;5048110;28;20467;-60
2023/01/02 02:37:51;;;;;;;7.82;5.53;;;11.80;99.90;;;;;;5047846;28;20056;-60
2023/01/02 02:40:41;;;;;;;14.23;6.53;;;11.80;99.90;;;;;;5048282;28;20033;-60
2023/01/02 02:43:06;;;;;;;10.93;6.45;;;11.80;99.90;;;;;;5047426;28;20044;-60
2023/01/02 02:46:06;;;;;;;19.53;7.63;;;11.80;99.90;;;;;;5036937;28;20033;-60
2023/01/02 02:48:35;;;;;;;12.80;6.63;;;11.90;99.90;;;;;;5049034;28;20051;-60
2023/01/02 02:51:06;;;;;;;13.88;6.68;;;11.90;99.90;;;;;;5049177;28;20517;-61
2023/01/02 02:53:39;;;;;;;13.68;6.38;;;11.90;99.90;;;;;;5048171;28;20040;-60
2023/01/02 02:56:08;;;;;;;9.32;5.60;;;11.90;99.90;;;;;;5048361;28;20041;-60
2023/01/02 02:58:35;;;;;;;19.70;6.50;;;11.90;99.90;;;;;;5049220;28;20041;-60
2023/01/02 03:01:06;;;;;;;20.27;7.03;;;11.90;99.90;;;;;;5048759;28;20029;-61
2023/01/02 03:03:32;;;;;;;15.68;7.07;;;11.90;99.90;;;;;;5048509;28;20036;-60
2023/01/02 03:06:12;;;;;;;13.73;6.35;;;11.90;99.90;;;;;;5049209;28;20049;-59
2023/01/02 03:08:46;;;;;;;13.10;6.75;;;11.90;99.90;;;;;;5047217;28;20041;-60
2023/01/02 03:11:12;;;;;;;14.27;6.93;;;11.90;99.90;;;;;;5048976;28;20520;-60
2023/01/02 03:14:07;;;;;;;10.00;5.85;;;11.90;99.90;;;;;;5048738;28;20041;-60
2023/01/02 03:16:40;;;;;;;14.38;6.63;;;11.90;99.90;;;;;;5029121;28;20568;-60
2023/01/02 03:19:19;;;;;;;16.67;5.82;;;11.90;99.90;;;;;;5030095;28;20033;-61
2023/01/02 03:21:54;;;;;;;14.23;7.30;;;11.90;99.90;;;;;;5049146;28;20478;-58
2023/01/02 03:24:23;;;;;;;16.08;6.13;;;11.90;99.90;;;;;;5047409;28;20052;-60
2023/01/02 03:26:57;;;;;;;16.65;6.55;;;11.90;99.90;;;;;;5048991;28;20041;-60
2023/01/02 03:29:33;;;;;;;14.85;6.47;;;11.90;99.90;;;;;;5047541;28;20041;-60
2023/01/02 03:32:02;;;;;;;13.23;7.15;;;11.90;99.90;;;;;;5048441;28;20481;-60
2023/01/02 03:34:32;;;;;;;12.32;6.32;;;11.90;99.90;;;;;;5047528;28;20041;-61
2023/01/02 03:37:02;;;;;;;16.95;6.07;;;11.90;99.90;;;;;;5051157;28;20072;-60
2023/01/02 03:39:31;;;;;;;11.88;6.60;;;11.90;99.90;;;;;;5052374;28;20124;-61
2023/01/02 03:42:03;;;;;;;12.13;6.97;;;11.90;99.90;;;;;;5052049;28;20041;-60
2023/01/02 03:44:42;;;;;;;15.18;4.82;;;12.00;99.90;;;;;;5050341;28;20498;-61
2023/01/02 03:47:27;;;;;;;11.73;6.38;;;12.00;99.90;;;;;;5050653;28;20029;-60
2023/01/02 03:49:55;;;;;;;13.50;6.15;;;12.00;99.90;;;;;;5050307;28;20047;-61
2023/01/02 03:52:21;;;;;;;14.73;6.45;;;12.00;99.90;;;;;;5050707;28;20041;-60
2023/01/02 03:54:47;;;;;;;14.50;6.72;;;11.90;99.90;;;;;;5050764;28;20067;-60
2023/01/02 03:57:34;;;;;;;13.90;9.13;;;12.00;99.90;;;;;;5051956;28;20044;-59
2023/01/02 04:00:17;;;;;;;12.13;6.63;;;12.00;99.90;;;;;;5052033;28;20048;-60
2023/01/02 04:03:04;;;;;;;15.27;8.07;;;12.00;99.90;;;;;;5051805;28;20040;-61
2023/01/02 04:05:42;;;;;;;12.27;6.83;;;11.90;99.90;;;;;;5051427;28;20041;-60
2023/01/02 04:08:28;;;;;;;11.93;5.88;;;12.00;99.90;;;;;;5050709;28;20088;-59
2023/01/02 04:10:56;;;;;;;12.90;6.45;;;11.90;99.90;;;;;;5051588;28;20444;-60
2023/01/02 04:13:28;;;;;;;17.02;6.47;;;12.00;99.90;;;;;;5050902;28;20052;-61
2023/01/02 04:15:55;;;;;;;15.38;5.43;;;12.00;99.90;;;;;;5051402;28;20058;-61
2023/01/02 04:18:34;;;;;;;14.68;6.07;;;12.00;99.90;;;;;;5051530;28;20154;-61
2023/01/02 04:21:06;;;;;;;14.40;6.15;;;12.00;99.90;;;;;;5051539;28;20040;-60
2023/01/02 04:23:38;;;;;;;9.68;5.35;;;12.00;99.90;;;;;;5050558;28;20044;-61
2023/01/02 04:26:10;;;;;;;14.68;5.97;;;12.10;99.90;;;;;;5051206;28;20052;-60
2023/01/02 04:28:36;;;;;;;9.60;5.35;;;12.10;99.90;;;;;;5051480;28;20048;-59
2023/01/02 04:31:11;;;;;;;20.15;5.35;;;12.10;99.90;;;;;;5051314;28;20394;-59
2023/01/02 04:33:42;;;;;;;15.70;6.13;;;12.10;99.90;;;;;;5050919;28;20041;-62
2023/01/02 04:36:13;;;;;;;7.45;4.75;;;12.10;99.90;;;;;;5050357;28;20051;-61
2023/01/02 04:38:41;;;;;;;10.70;4.88;;;12.10;99.90;;;;;;5051295;28;20077;-60
2023/01/02 04:41:07;;;;;;;12.20;6.15;;;12.10;99.90;;;;;;5051017;28;20037;-60
2023/01/02 04:43:33;;;;;;;15.90;4.70;;;12.10;99.90;;;;;;5050680;28;20048;-58
2023/01/02 04:45:58;;;;;;;10.80;4.83;;;12.20;99.90;;;;;;5050981;28;20041;-60
2023/01/02 04:48:24;;;;;;;19.23;6.30;;;12.10;99.90;;;;;;5050633;28;20272;-61
2023/01/02 04:50:50;;;;;;;17.08;5.45;;;12.20;99.90;;;;;;5050705;28;20037;-62
2023/01/02 04:53:15;;;;;;;10.00;5.10;;;12.20;99.90;;;;;;5050350;28;20060;-60
2023/01/02 04:55:41;;;;;;;6.78;3.50;;;12.20;99.90;;;;;;5049094;28;20048;-60
2023/01/02 04:58:07;;;;;;;11.60;4.60;;;12.20;99.90;;;;;;5050122;28;20041;-61
2023/01/02 05:00:33;;;;;;;12.18;4.75;;;12.20;99.90;;;;;;5050737;28;20294;-61
2023/01/02 05:03:01;;;;;;;13.63;5.30;;;12.20;99.90;;;;;;5050178;28;20033;-61
2023/01/02 05:05:26;;;;;;;10.70;4.63;;;12.20;99.90;;;;;;5050606;28;20047;-61
2023/01/02 05:07:52;;;;;;;12.38;5.60;;;12.20;99.90;;;;;;5050502;28;20252;-59
2023/01/02 05:10:17;;;;;;;20.40;5.83;;;12.30;99.90;;;;;;5050822;28;20095;-60
2023/01/02 05:12:43;;;;;;;17.90;5.70;;;12.30;99.90;;;;;;5051174;28;20045;-60
2023/01/02 05:15:09;;;;;;;10.77;4.37;;;12.30;99.90;;;;;;5049038;28;20694;-60
2023/01/02 05:17:36;;;;;;;;;;;12.30;99.90;;;;;;5050814;28;20291;-61
2023/01/02 05:20:03;;;;;;;13.82;5.70;;;12.20;99.90;;;;;;5050371;28;19916;-60
2023/01/02 05:25:13;;;;;;;18.23;5.35;;;12.20;99.90;;;;;;5049121;28;20506;-60
2023/01/02 05:27:39;;;;;;;8.35;4.40;;;12.20;99.90;;;;;;5050009;28;20049;-60
2023/01/02 05:30:06;;;;;;;10.07;4.45;;;12.20;99.90;;;;;;5050345;28;20479;-60
2023/01/02 05:32:31;;;;;;;17.45;4.85;;;12.20;99.90;;;;;;5050028;28;20376;-61
2023/01/02 05:34:57;;;;;;;14.73;5.60;;;12.20;99.90;;;;;;5049261;28;20051;-60
2023/01/02 05:37:22;;;;;;;13.13;4.50;;;12.20;99.90;;;;;;5049837;28;20292;-60
2023/01/02 05:39:48;;;;;;;14.83;5.67;;;12.20;99.90;;;;;;5048928;28;20045;-60
2023/01/02 05:42:13;;;;;;;12.47;5.90;;;12.20;99.90;;;;;;5049895;28;20116;-61
2023/01/02 05:44:39;;;;;;;12.80;6.63;;;12.20;99.90;;;;;;5048952;28;20040;-60
2023/01/02 05:47:04;;;;;;;17.90;6.57;;;12.20;99.90;;;;;;5049035;28;20341;-62
2023/01/02 05:49:30;;;;;;;8.80;5.57;;;12.20;99.90;;;;;;5050396;28;20056;-61
2023/01/02 05:51:55;;;;;;;13.17;5.77;;;12.20;99.90;;;;;;5049944;28;20272;-61
2023/01/02 05:54:21;;;;;;;11.73;5.20;;;12.20;99.90;;;;;;5049219;28;20032;-61
2023/01/02 05:56:47;;;;;;;8.27;4.43;;;12.20;99.90;;;;;;5049256;28;20040;-60
2023/01/02 05:59:13;;;;;;;12.30;5.37;;;12.20;99.90;;;;;;5049398;28;20688;-61
2023/01/02 06:01:39;;;;;;;12.18;5.60;;;12.20;99.90;;;;;;5048321;28;20287;-60
2023/01/02 06:04:04;;;;;;;10.10;5.57;;;12.20;99.90;;;;;;5047815;28;20521;-60
2023/01/02 06:06:33;;;;;;;9.23;4.13;;;12.20;99.90;;;;;;5049242;28;20283;-61
2023/01/02 06:08:59;;;;;;;9.68;4.30;;;12.20;99.90;;;;;;5049574;28;20025;-60
2023/01/02 06:11:26;;;;;;;;;;;12.20;99.90;;;;;;5050615;28;20037;-60
2023/01/02 06:13:51;;;;;;;10.38;4.72;;;12.20;99.90;;;;;;5047682;28;20401;-60
2023/01/02 06:16:17;;;;;;;11.48;4.53;;;12.30;99.90;;;;;;5049248;28;20133;-60
2023/01/02 06:18:43;;;;;;;6.27;3.50;;;12.30;99.90;;;;;;5049243;28;20503;-62
2023/01/02 06:21:14;;;;;;;12.82;4.25;;;12.20;99.90;;;;;;5048996;28;20391;-59
2023/01/02 06:23:40;;;;;;;6.40;4.60;;;12.30;99.90;;;;;;5048631;28;20040;-59
2023/01/02 06:26:18;;;;;;;6.50;3.38;;;12.30;99.90;;;;;;5049703;28;20047;-60
2023/01/02 06:28:44;;;;;;;8.35;4.03;;;12.30;99.90;;;;;;5048824;28;20063;-60
2023/01/02 06:31:11;;;;;;;;;;;12.30;99.90;;;;;;5050254;28;20133;-60
2023/01/02 06:33:37;;;;;;;15.23;4.32;;;12.30;99.90;;;;;;5046314;28;19917;-62
2023/01/02 06:36:06;;;;;;;8.57;4.60;;;12.30;99.90;;;;;;5048133;28;20075;-61
2023/01/02 06:38:32;;;;;;;7.45;3.40;;;12.30;99.90;;;;;;5044491;28;20116;-61
2023/01/02 06:40:59;;;;;;;8.45;3.47;;;12.30;99.90;;;;;;5047907;28;20191;-61
2023/01/02 06:43:26;;;;;;;7.40;3.40;;;12.30;99.90;;;;;;5047118;28;20318;-60
2023/01/02 06:45:52;;;;;;;13.60;4.90;;;12.30;99.90;;;;;;5047516;28;20391;-60
2023/01/02 06:48:18;;;;;;;6.07;4.50;;;12.30;99.90;;;;;;5047457;28;20140;-60
2023/01/02 06:50:44;;;;;;;6.03;4.13;;;12.30;99.90;;;;;;5046745;28;20118;-60
2023/01/02 06:53:11;;;;;;;9.38;4.45;;;12.30;99.90;;;;;;5047176;28;20037;-60
2023/01/02 06:55:36;;;;;;;10.73;4.20;;;12.30;99.90;;;;;;5046036;28;20037;-61
2023/01/02 06:58:02;;;;;;;7.22;4.15;;;12.30;99.90;;;;;;5048370;28;20048;-61
2023/01/02 07:00:28;;;;;;;8.13;4.05;;;12.30;99.90;;;;;;5048000;28;20040;-60
2023/01/02 07:02:53;;;;;;;8.53;4.10;;;12.30;99.90;;;;;;5047723;28;20033;-60
2023/01/02 07:05:19;;;;;;;7.17;4.50;;;12.30;99.90;;;;;;5047314;28;20041;-60
2023/01/02 07:07:44;;;;;;;5.90;4.37;;;12.30;99.90;;;;;;5048053;28;20283;-60
2023/01/02 07:10:10;;;;;;;7.93;4.80;;;12.30;99.90;;;;;;5048206;28;20688;-60
2023/01/02 07:12:37;;;;;;;12.90;4.95;;;12.30;99.90;;;;;;5051835;28;20410;-60
2023/01/02 07:15:04;;;;;;;8.10;3.97;;;12.30;99.90;;;;;;5047577;28;20056;-60
2023/01/02 07:17:31;;;;;;;9.80;4.50;;;12.30;99.90;;;;;;5051913;28;20045;-60
2023/01/02 07:19:57;;;;;;;7.72;4.10;;;12.30;99.90;;;;;;5047731;28;20037;-61
2023/01/02 07:22:22;;;;;;;10.88;5.07;;;12.30;99.90;;;;;;5043305;28;20044;-60
2023/01/02 07:24:48;;;;;;;11.10;5.83;;;12.30;99.90;;;;;;5051341;28;20041;-60
2023/01/02 07:27:13;;;;;;;9.83;5.20;;;12.30;99.90;;;;;;5052439;28;20294;-60
2023/01/02 07:29:39;;;;;;;14.97;5.90;;;12.30;99.90;;;;;;5050216;28;20048;-59
2023/01/02 07:32:05;;;;;;;11.97;6.87;;;12.30;99.90;;;;;;5052786;28;20267;-61
2023/01/02 07:34:30;;;;;;;7.50;4.80;;;12.20;99.90;;;;;;5051316;28;20524;-61
2023/01/02 07:36:56;;;;;;;3.40;2.00;;;12.20;99.90;;;;;;5052160;28;20075;-60
2023/01/02 07:39:22;;;;;;;1.37;1.23;;;12.10;99.90;;;;;;5052439;28;20037;-61
2023/01/02 07:41:48;;;;;;;;;;;12.00;99.90;;;;;;5051586;28;20358;-60
2023/01/02 07:44:13;;;;;;;3.17;0.52;;;11.80;99.90;;;;;;5051054;28;20449;-58
2023/01/02 07:46:39;;;;;;;0.70;0.60;;;11.60;99.90;;;;;;5051167;28;20069;-62
2023/01/02 07:49:05;;;;;;;1.17;0.83;;;11.50;99.90;;;;;;5048770;28;20049;-61
2023/01/02 07:51:31;;;;;;;5.82;0.47;;;11.40;99.90;;;;;;5046911;28;20275;-59
2023/01/02 07:53:56;;;;;;;0.50;0.30;;;11.30;99.90;;;;;;5047804;28;20474;-62
2023/01/02 07:56:22;;;;;;;0.50;0.40;;;11.20;99.90;;;;;;5048100;28;20047;-58
2023/01/02 07:58:49;;;;;;;1.20;0.50;;;11.10;99.90;;;;;;5051520;28;20315;-60
2023/01/02 08:01:14;;;;;;;2.95;1.10;;;11.00;99.90;;;;;;5051993;28;20041;-60
2023/01/02 08:03:40;;;;;;;1.80;1.70;;;10.90;99.90;;;;;;5051161;28;20048;-61
2023/01/02 08:06:11;;;;;;;2.13;2.03;;;10.90;99.90;;;;;;5051044;28;20091;-59
2023/01/02 08:08:37;;;;;;;2.10;2.00;;;10.80;99.90;;;;;;5050784;28;20403;-60
2023/01/02 08:11:14;;;;;;;2.67;2.47;;;10.80;99.90;;;;;;5051839;28;20037;-60
2023/01/02 08:13:40;;;;;;;4.80;3.65;;;10.70;99.90;;;;;;5051021;28;20044;-58
2023/01/02 08:16:14;;;;;;;4.22;3.92;;;10.60;99.90;;;;;;5051352;28;20041;-60
2023/01/02 08:18:39;;;;;;;3.35;3.15;;;10.60;99.90;;;;;;5046545;28;20059;-60
2023/01/02 08:21:07;;;;;;;3.53;3.27;;;10.50;99.90;;;;;;5050701;28;20033;-61
2023/01/02 08:23:33;;;;;;;5.47;5.07;;;10.50;99.90;;;;;;5050459;28;20780;-61
2023/01/02 08:26:01;;;;;;;5.75;4.20;;;10.40;99.90;;;;;;5051219;28;20037;-61
2023/01/02 08:28:27;;;;;;;3.65;3.35;;;10.40;99.90;;;;;;5050499;28;20041;-60
2023/01/02 08:30:53;;;;;;;;;;;10.30;99.90;;;;;;5051208;28;20615;-60
2023/01/02 08:33:18;;;;;;;2.05;1.70;;;10.30;99.90;;;;;;5050715;28;20003;-62
2023/01/02 08:35:44;;;;;;;2.20;1.87;;;10.20;99.90;;;;;;5050599;28;20036;-61
2023/01/02 08:38:10;;;;;;;2.67;2.00;;;10.20;99.90;;;;;;5051171;28;20291;-63
2023/01/02 08:40:35;;;;;;;3.53;2.60;;;10.10;99.90;;;;;;5049968;28;20114;-61
2023/01/02 08:43:01;;;;;;;2.60;2.35;;;10.00;99.90;;;;;;5049974;28;20045;-61
2023/01/02 08:45:26;;;;;;;5.73;2.47;;;10.00;99.90;;;;;;5050837;28;20044;-62
2023/01/02 08:47:52;;;;;;;2.93;2.67;;;9.90;99.90;;;;;;5049996;28;20032;-61
2023/01/02 08:50:18;;;;;;;3.80;2.40;;;9.90;99.90;;;;;;5050832;28;20275;-61
2023/01/02 08:52:43;;;;;;;4.03;2.20;;;9.80;99.90;;;;;;5051355;28;20268;-61
2023/01/02 08:55:09;;;;;;;3.63;2.33;;;9.80;99.90;;;;;;5050200;28;20045;-62
2023/01/02 08:57:35;;;;;;;3.28;2.97;;;9.80;99.90;;;;;;5049552;28;20052;-61
2023/01/02 09:00:02;;;;;;;3.87;2.20;;;9.70;99.90;;;;;;5051230;28;20048;-61
2023/01/02 09:02:27;;;;;;;3.10;2.25;;;9.70;99.90;;;;;;5050919;28;20043;-62
2023/01/02 09:04:53;;;;;;;3.47;2.10;;;9.60;99.90;;;;;;5049449;28;20045;-62
2023/01/02 09:07:18;;;;;;;2.23;1.63;;;9.60;99.90;;;;;;5050716;28;20040;-61
2023/01/02 09:09:44;;;;;;;2.30;1.50;;;9.50;99.90;;;;;;5050638;28;20060;-61
2023/01/02 09:12:09;;;;;;;2.43;1.13;;;9.40;99.90;;;;;;5049133;28;20033;-62
2023/01/02 09:14:35;;;;;;;3.07;1.10;;;9.40;99.90;;;;;;5035360;28;20059;-61
2023/01/02 09:17:01;;;;;;;2.33;0.93;;;9.40;99.90;;;;;;5031589;28;20048;-61
2023/01/02 09:19:26;;;;;;;2.47;1.07;;;9.30;99.90;;;;;;5050299;28;20118;-60
2023/01/02 09:21:52;;;;;;;4.20;1.23;;;9.30;99.90;;;;;;5050651;28;20044;-62
2023/01/02 09:24:17;;;;;;;3.45;1.75;;;9.30;99.90;;;;;;5048831;28;20473;-59
2023/01/02 09:26:43;;;;;;;3.20;1.57;;;9.20;99.90;;;;;;5049832;28;20504;-60
2023/01/02 09:29:13;;;;;;;1.45;0.90;;;9.20;99.90;;;;;;5050478;28;20033;-61
2023/01/02 09:31:39;;;;;;;2.95;0.80;;;9.20;99.90;;;;;;5048946;28;20094;-63
2023/01/02 09:34:05;;;;;;;2.70;1.45;;;9.20;99.90;;;;;;5047229;28;20490;-62
2023/01/02 09:36:31;;;;;;;2.38;0.98;;;9.10;99.90;;;;;;5049702;28;20041;-62
2023/01/02 09:38:58;;;;;;;1.92;1.02;;;9.10;99.90;;;;;;5049719;28;20098;-60
2023/01/02 09:41:32;;;;;;;5.60;1.50;;;9.10;99.90;;;;;;5050686;28;20036;-61
2023/01/02 09:44:13;;;;;;;3.35;1.05;;;9.10;99.90;;;;;;5049236;28;20036;-61
2023/01/02 09:46:59;;;;;;;4.00;0.90;;;9.10;99.90;;;;;;5049309;28;20434;-61
2023/01/02 09:49:28;;;;;;;8.90;1.23;;;9.10;99.90;;;;;;5050102;28;20116;-58
2023/01/02 09:51:54;;;;;;;5.53;1.50;;;9.10;99.90;;;;;;5050107;28;20049;-54
2023/01/02 09:54:26;;;;;;;1.63;1.27;;;9.10;99.90;;;;;;5048917;28;20040;-57
2023/01/02 09:57:15;;;;;;;5.07;2.00;;;9.10;99.90;;;;;;5049239;28;20044;-56
2023/01/02 09:59:49;;;;;;;1.90;1.25;;;9.10;99.90;;;;;;5050165;28;20053;-59
2023/01/02 10:02:29;;;;;;;2.63;1.20;;;9.10;99.90;;;;;;5050058;28;20056;-56
2023/01/02 10:05:28;;;;;;;4.40;1.15;;;9.10;99.90;;;;;;5043758;28;20109;-56
2023/01/02 10:08:31;;;;;;;3.47;1.30;;;9.10;99.90;;;;;;5049227;28;20037;-56
2023/01/02 10:11:27;;;;;;;2.13;1.17;;;9.10;99.90;;;;;;5047332;28;20406;-60
2023/01/02 10:14:26;;;;;;;1.83;0.98;;;9.10;99.90;;;;;;5034608;28;20100;-58
2023/01/02 10:16:56;;;;;;;2.72;1.25;;;9.10;99.90;;;;;;5049261;28;20041;-57
2023/01/02 10:19:42;;;;;;;2.92;0.95;;;9.10;99.90;;;;;;5049484;28;20041;-58
2023/01/02 10:22:14;;;;;;;2.07;0.93;;;9.10;99.90;;;;;;5049493;28;20160;-57
2023/01/02 10:24:51;;;;;;;2.42;1.20;;;9.10;99.90;;;;;;5048026;28;20047;-58
2023/01/02 10:27:21;;;;;;;3.20;1.42;;;9.20;99.90;;;;;;5049596;28;20040;-56
2023/01/02 10:30:10;;;;;;;2.58;1.00;;;9.20;99.90;;;;;;5049310;28;20041;-54
2023/01/02 10:32:37;;;;;;;3.40;1.15;;;9.20;99.90;;;;;;5049904;28;20044;-56
2023/01/02 10:35:06;;;;;;;2.63;1.63;;;9.20;99.90;;;;;;5048078;28;20024;-56
2023/01/02 10:37:33;;;;;;;1.98;1.00;;;9.20;99.90;;;;;;5048667;28;20043;-54
2023/01/02 10:39:59;;;;;;;1.90;0.68;;;9.30;99.90;;;;;;5049407;28;20045;-56
2023/01/02 10:42:24;;;;;;;3.10;0.93;;;9.30;99.90;;;;;;5049007;28;20485;-57
2023/01/02 10:44:51;;;;;;;2.10;0.75;;;9.30;99.90;;;;;;5048564;28;20049;-56
2023/01/02 10:47:20;;;;;;;1.42;0.75;;;9.30;99.90;;;;;;5052429;28;20051;-59
2023/01/02 10:49:47;;;;;;;3.70;1.05;;;9.30;99.90;;;;;;5053242;28;20041;-56
2023/01/02 10:52:23;;;;;;;4.03;0.77;;;9.30;99.90;;;;;;5051730;28;20029;-56
2023/01/02 10:54:54;;;;;;;3.05;0.75;;;9.30;99.90;;;;;;5050050;28;20524;-59
2023/01/02 10:57:32;;;;;;;1.50;0.73;;;9.20;99.90;;;;;;5051511;28;20071;-56
2023/01/02 11:00:00;;;;;;;1.95;0.93;;;9.20;99.90;;;;;;5052052;28;20049;-57
2023/01/02 11:02:39;;;;;;;4.20;1.05;;;9.20;99.90;;;;;;5052613;28;20053;-57
2023/01/02 11:05:16;;;;;;;3.50;1.50;;;9.20;99.90;;;;;;5051464;28;20556;-57
2023/01/02 11:07:46;;;;;;;3.35;1.00;;;9.20;99.90;;;;;;5052345;28;20037;-56
2023/01/02 11:10:31;;;;;;;5.75;1.83;;;9.20;99.90;;;;;;5051482;28;20068;-56
2023/01/02 11:13:02;;;;;;;2.55;2.10;;;9.20;99.90;;;;;;5052291;28;20486;-57
2023/01/02 11:15:29;;;;;;;6.18;2.35;;;9.20;99.90;;;;;;5052106;28;20047;-57
2023/01/02 11:17:56;;;;;;;3.08;2.78;;;9.20;99.90;;;;;;5052452;28;20402;-56
2023/01/02 11:20:29;;;;;;;6.70;3.33;;;9.20;99.90;;;;;;5050289;28;20075;-58
2023/01/02 11:22:57;;;;;;;6.53;2.67;;;9.20;99.90;;;;;;5052303;28;20394;-56
2023/01/02 11:25:26;;;;;;;3.92;2.88;;;9.20;99.90;;;;;;5051823;28;20037;-56
2023/01/02 11:27:57;;;;;;;6.10;3.05;;;9.20;99.90;;;;;;5052553;28;20090;-57
2023/01/02 11:30:33;;;;;;;3.90;3.08;;;9.30;99.90;;;;;;5034894;28;20573;-56
2023/01/02 11:33:12;;;;;;;4.35;3.30;;;9.30;99.90;;;;;;5030803;28;20322;-56
2023/01/02 11:35:41;;;;;;;7.00;3.30;;;9.30;99.90;;;;;;5048735;28;20575;-58
2023/01/02 11:38:19;;;;;;;4.15;2.72;;;9.40;99.90;;;;;;5043649;28;20128;-58
2023/01/02 11:40:59;;;;;;;4.13;3.72;;;9.40;99.90;;;;;;5052574;28;20123;-57
2023/01/02 11:43:50;;;;;;;4.53;3.35;;;9.40;99.90;;;;;;5049234;28;20118;-57
2023/01/02 11:46:31;;;;;;;5.40;4.18;;;9.40;99.90;;;;;;5049913;28;20389;-58
2023/01/02 11:49:03;;;;;;;6.85;5.45;;;9.40;99.90;;;;;;5058806;28;20102;-59
2023/01/02 11:51:31;;;;;;;6.28;4.82;;;9.40;99.90;;;;;;5061412;28;20025;-58
2023/01/02 11:53:59;;;;;;;7.40;6.68;;;9.40;99.90;;;;;;5058145;28;20047;-56
2023/01/02 11:56:35;;;;;;;9.05;6.40;;;9.40;99.90;;;;;;5057108;28;20380;-57
2023/01/02 11:59:19;;;;;;;6.82;5.70;;;9.50;99.90;;;;;;5062267;28;20230;-58
2023/01/02 12:02:09;;;;;;;6.10;4.97;;;9.50;99.90;;;;;;5056467;28;20037;-56
2023/01/02 12:04:35;;;;;;;6.97;4.57;;;9.50;99.90;;;;;;5058430;28;20048;-56
2023/01/02 12:07:15;;;;;;;5.25;3.92;;;9.50;99.90;;;;;;5062861;28;20038;-58
2023/01/02 12:10:12;;;;;;;3.85;3.30;;;9.50;99.90;;;;;;5050020;28;20453;-58
2023/01/02 12:13:04;;;;;;;6.00;1.38;;;9.60;99.90;;;;;;5056021;28;20044;-56
2023/01/02 12:15:39;;;;;;;3.60;1.13;;;9.60;99.90;;;;;;5062380;28;20390;-56
2023/01/02 12:18:15;;;;;;;5.72;1.70;;;9.60;99.90;;;;;;5058783;28;20504;-58
2023/01/02 12:20:51;;;;;;;3.45;1.60;;;9.70;99.90;;;;;;5057609;28;20044;-56
2023/01/02 12:23:19;;;;;;;6.47;1.60;;;9.70;99.90;;;;;;5057495;28;20070;-57
2023/01/02 12:25:52;;;;;;;5.15;1.23;;;9.70;99.90;;;;;;5063420;28;20048;-56
2023/01/02 12:28:37;;;;;;;5.30;1.80;;;9.70;99.90;;;;;;5059860;28;20454;-56
2023/01/02 12:31:43;;;;;;;4.43;1.60;;;9.70;99.90;;;;;;5062401;28;20171;-53
2023/01/02 12:34:33;;;;;;;2.40;1.15;;;9.80;99.90;;;;;;5055115;28;20040;-56
2023/01/02 12:37:30;;;;;;;4.53;0.90;;;9.80;99.90;;;;;;5058774;28;20048;-56
2023/01/02 12:40:19;;;;;;;5.88;1.50;;;9.80;99.90;;;;;;5054643;28;20055;-56
2023/01/02 12:42:51;;;;;;;3.95;1.58;;;9.80;99.90;;;;;;5055434;28;20047;-57
2023/01/02 12:45:43;;;;;;;3.90;1.15;;;9.80;99.90;;;;;;5056448;28;20073;-61
2023/01/02 12:48:54;;;;;;;3.60;1.60;;;9.80;99.90;;;;;;5039321;28;20048;-58
2023/01/02 12:51:40;;;;;;;3.78;2.10;;;9.80;99.90;;;;;;5060461;28;20087;-58
2023/01/02 12:54:27;;;;;;;2.15;1.52;;;9.80;99.90;;;;;;5054658;28;20040;-60
2023/01/02 12:57:08;;;;;;;6.90;1.55;;;9.70;99.90;;;;;;5058004;28;20056;-57
2023/01/02 12:59:46;;;;;;;2.50;1.50;;;9.70;99.90;;;;;;5061894;28;20032;-57
2023/01/02 13:02:14;;;;;;;6.55;1.42;;;9.70;99.90;;;;;;5054562;28;20110;-57
2023/01/02 13:04:53;;;;;;;5.10;0.95;;;9.70;99.90;;;;;;5060544;28;20145;-58
2023/01/02 13:07:22;;;;;;;5.75;1.10;;;9.70;99.90;;;;;;5056754;28;20101;-57